Time;durP1;ratioP1;P1;durP2;ratioP2;P2;SDS_P1;SDS_P2;PMS_P1;PMS_P2;Temp;Humidity;BMP_temperature;BMP_pressure;BME280_temperature;BME280_humidity;BME280_pressure;Samples;Min_cycle;Max_cycle;Signal;HPM_P1;HPM_P2
2022/05/27 00:00:41;;;;;;;8.57;3.03;;;16.90;99.90;;;;;;5109338;28;20195;-51
2022/05/27 00:03:10;;;;;;;6.65;3.00;;;17.00;99.90;;;;;;5108807;28;20227;-50
2022/05/27 00:05:39;;;;;;;6.55;2.72;;;16.90;99.90;;;;;;5109595;28;20275;-51
2022/05/27 00:08:08;;;;;;;8.27;2.92;;;17.00;99.90;;;;;;5108919;28;21108;-50
2022/05/27 00:10:36;;;;;;;6.25;2.70;;;17.00;99.90;;;;;;5110257;28;20212;-52
2022/05/27 00:13:04;;;;;;;5.55;2.65;;;17.00;99.90;;;;;;5110855;28;20236;-51
2022/05/27 00:15:34;;;;;;;7.00;3.05;;;16.90;99.90;;;;;;5116959;28;20242;-50
2022/05/27 00:18:02;;;;;;;7.60;2.75;;;16.90;99.90;;;;;;5118424;28;20230;-50
2022/05/27 00:20:30;;;;;;;6.05;3.13;;;16.90;99.90;;;;;;5117370;28;20222;-50
2022/05/27 00:22:58;;;;;;;6.07;2.80;;;16.90;99.90;;;;;;5111120;28;20227;-50
2022/05/27 00:25:26;;;;;;;5.82;2.80;;;16.90;99.90;;;;;;5109189;28;20827;-51
2022/05/27 00:27:55;;;;;;;4.30;2.72;;;16.90;99.90;;;;;;5109298;28;20680;-50
2022/05/27 00:30:24;;;;;;;4.90;2.80;;;16.90;99.90;;;;;;5108880;28;20235;-51
2022/05/27 00:32:54;;;;;;;5.45;2.95;;;16.90;99.90;;;;;;5108972;28;20259;-51
2022/05/27 00:35:22;;;;;;;5.53;2.78;;;16.90;99.90;;;;;;5109407;28;20735;-50
2022/05/27 00:37:50;;;;;;;5.57;2.70;;;16.90;99.90;;;;;;5108658;28;20243;-51
2022/05/27 00:40:20;;;;;;;6.20;3.05;;;16.90;99.90;;;;;;5108980;28;20258;-50
2022/05/27 00:42:49;;;;;;;5.43;3.00;;;16.80;99.90;;;;;;5108911;28;20259;-50
2022/05/27 00:45:19;;;;;;;7.65;3.35;;;16.80;99.90;;;;;;5112534;28;20231;-50
2022/05/27 00:47:51;;;;;;;7.90;3.33;;;16.80;99.90;;;;;;5112721;28;20715;-50
2022/05/27 00:50:25;;;;;;;6.43;3.05;;;16.80;99.90;;;;;;5112779;28;20247;-51
2022/05/27 00:52:55;;;;;;;6.53;3.35;;;16.70;99.90;;;;;;5111849;28;20227;-50
2022/05/27 00:55:28;;;;;;;9.13;3.15;;;16.70;99.90;;;;;;5111869;28;20253;-51
2022/05/27 00:58:02;;;;;;;10.52;3.60;;;16.80;99.90;;;;;;5112561;28;20246;-50
2022/05/27 01:00:30;;;;;;;6.80;3.42;;;16.70;99.90;;;;;;5112165;28;20233;-50
2022/05/27 01:03:01;;;;;;;5.65;3.42;;;16.70;99.90;;;;;;5112002;28;20318;-50
2022/05/27 01:05:30;;;;;;;5.82;3.25;;;16.60;99.90;;;;;;5112643;28;20312;-50
2022/05/27 01:08:02;;;;;;;4.88;3.08;;;16.60;99.90;;;;;;5111699;28;20208;-50
2022/05/27 01:10:35;;;;;;;7.18;3.05;;;16.60;99.90;;;;;;5112174;28;20875;-50
2022/05/27 01:13:17;;;;;;;5.38;2.80;;;16.60;99.90;;;;;;5111501;28;20231;-50
2022/05/27 01:15:57;;;;;;;4.88;3.00;;;16.70;99.90;;;;;;5112342;28;20277;-50
2022/05/27 01:21:47;;;;;;;6.15;3.10;;;16.60;99.90;;;;;;5091757;28;20274;-50
2022/05/27 01:24:42;;;;;;;4.40;3.00;;;16.50;99.90;;;;;;5091441;28;20825;-50
2022/05/27 01:27:40;;;;;;;6.32;3.15;;;16.50;99.90;;;;;;5091789;28;20281;-50
2022/05/27 01:30:23;;;;;;;4.78;3.05;;;16.50;99.90;;;;;;5091710;28;20621;-50
2022/05/27 01:33:03;;;;;;;6.53;3.20;;;16.50;99.90;;;;;;5091106;28;20256;-50
2022/05/27 01:35:42;;;;;;;6.65;3.25;;;16.50;99.90;;;;;;5091227;28;20244;-50
2022/05/27 01:38:15;;;;;;;6.15;2.85;;;16.50;99.90;;;;;;5108434;28;20247;-50
2022/05/27 01:40:51;;;;;;;4.13;3.08;;;16.40;99.90;;;;;;5111742;28;20707;-50
2022/05/27 01:43:24;;;;;;;5.38;3.22;;;16.30;99.90;;;;;;5110924;28;20231;-50
2022/05/27 01:45:59;;;;;;;5.50;3.30;;;16.30;99.90;;;;;;5111800;28;20285;-50
2022/05/27 01:48:33;;;;;;;3.80;2.92;;;16.30;99.90;;;;;;5104631;28;20200;-51
2022/05/27 01:51:08;;;;;;;4.93;3.60;;;16.30;99.90;;;;;;5091612;28;20188;-50
2022/05/27 01:53:44;;;;;;;6.32;3.75;;;16.20;99.90;;;;;;5090496;28;20231;-51
2022/05/27 01:56:17;;;;;;;4.85;3.50;;;16.20;99.90;;;;;;5090604;28;20184;-50
2022/05/27 01:58:50;;;;;;;6.03;4.25;;;16.20;99.90;;;;;;5091124;28;20726;-50
2022/05/27 02:01:24;;;;;;;7.93;4.47;;;16.10;99.90;;;;;;5107872;28;20223;-50
2022/05/27 02:03:57;;;;;;;5.57;4.55;;;16.10;99.90;;;;;;5111467;28;20281;-50
2022/05/27 02:06:31;;;;;;;5.75;4.38;;;16.20;99.90;;;;;;5110380;28;20269;-51
2022/05/27 02:09:04;;;;;;;5.88;4.90;;;16.10;99.90;;;;;;5111022;28;20238;-50
2022/05/27 02:11:33;;;;;;;5.65;4.32;;;16.10;99.90;;;;;;5110997;28;20262;-50
2022/05/27 02:14:06;;;;;;;8.18;4.50;;;16.10;99.90;;;;;;5109795;28;20207;-50
2022/05/27 02:16:38;;;;;;;6.53;4.10;;;16.10;99.90;;;;;;5110562;28;20266;-50
2022/05/27 02:19:12;;;;;;;6.72;4.45;;;16.00;99.90;;;;;;5110983;28;20569;-49
2022/05/27 02:21:43;;;;;;;6.78;4.30;;;16.10;99.90;;;;;;5110552;28;20249;-50
2022/05/27 02:24:17;;;;;;;4.55;3.35;;;16.10;99.90;;;;;;5110876;28;20239;-50
2022/05/27 02:26:50;;;;;;;8.13;3.97;;;16.00;99.90;;;;;;5111004;28;20633;-51
2022/05/27 02:29:24;;;;;;;4.75;3.78;;;16.00;99.90;;;;;;5111058;28;20699;-50
2022/05/27 02:31:58;;;;;;;5.75;4.00;;;16.00;99.90;;;;;;5110135;28;20727;-50
2022/05/27 02:37:20;;;;;;;6.60;4.65;;;16.00;99.90;;;;;;5110484;28;20215;-50
2022/05/27 02:39:48;;;;;;;7.00;4.90;;;15.90;99.90;;;;;;5110639;28;20196;-50
2022/05/27 02:42:20;;;;;;;8.55;5.18;;;15.90;99.90;;;;;;5110237;28;20267;-50
2022/05/27 02:44:54;;;;;;;8.77;4.60;;;15.90;99.90;;;;;;5111104;28;20200;-50
2022/05/27 02:47:32;;;;;;;9.05;5.95;;;15.90;99.90;;;;;;5110480;28;20853;-50
2022/05/27 02:50:11;;;;;;;6.05;5.13;;;15.90;99.90;;;;;;5110660;28;20295;-50
2022/05/27 02:52:48;;;;;;;6.88;5.13;;;15.80;99.90;;;;;;5109904;28;20253;-50
2022/05/27 02:55:23;;;;;;;12.23;4.63;;;15.80;99.90;;;;;;5110096;28;20212;-50
2022/05/27 02:57:54;;;;;;;6.85;5.15;;;15.80;99.90;;;;;;5110869;28;20227;-50
2022/05/27 03:00:25;;;;;;;9.05;5.15;;;15.70;99.90;;;;;;5110058;28;20235;-50
2022/05/27 03:02:59;;;;;;;8.35;5.57;;;15.70;99.90;;;;;;5110042;28;20223;-50
2022/05/27 03:05:32;;;;;;;8.98;5.43;;;15.70;99.90;;;;;;5110195;28;20195;-50
2022/05/27 03:08:13;;;;;;;8.52;5.38;;;15.80;99.90;;;;;;5109812;28;20227;-50
2022/05/27 03:11:02;;;;;;;7.45;4.97;;;15.80;99.90;;;;;;5110695;28;20241;-50
2022/05/27 03:13:57;;;;;;;6.13;4.90;;;15.80;99.90;;;;;;5109131;28;20280;-50
2022/05/27 03:16:38;;;;;;;5.85;5.07;;;15.80;99.90;;;;;;5110653;28;20192;-50
2022/05/27 03:19:31;;;;;;;6.07;4.72;;;15.70;99.90;;;;;;5110115;28;20277;-50
2022/05/27 03:22:12;;;;;;;7.75;5.32;;;15.80;99.90;;;;;;5109376;28;20280;-50
2022/05/27 03:25:04;;;;;;;7.82;5.15;;;15.70;99.90;;;;;;5110092;28;20188;-50
2022/05/27 03:27:40;;;;;;;5.30;4.80;;;15.60;99.90;;;;;;5110391;28;20207;-50
2022/05/27 03:30:14;;;;;;;6.13;5.15;;;15.70;99.90;;;;;;5109497;28;20203;-50
2022/05/27 03:32:48;;;;;;;7.43;4.68;;;15.70;99.90;;;;;;5109262;28;20763;-49
2022/05/27 03:35:25;;;;;;;9.48;4.93;;;15.70;99.90;;;;;;5110052;28;20626;-50
2022/05/27 03:38:01;;;;;;;8.48;4.75;;;15.60;99.90;;;;;;5104030;28;20259;-50
2022/05/27 03:40:33;;;;;;;5.05;4.50;;;15.60;99.90;;;;;;5109593;28;20298;-50
2022/05/27 03:43:03;;;;;;;4.93;4.45;;;15.60;99.90;;;;;;5107762;28;20223;-50
2022/05/27 03:45:31;;;;;;;5.38;4.25;;;15.60;99.90;;;;;;5110473;28;20203;-50
2022/05/27 03:47:59;;;;;;;5.72;4.40;;;15.60;99.90;;;;;;5111535;28;20302;-50
2022/05/27 03:50:29;;;;;;;4.78;3.90;;;15.60;99.90;;;;;;5111356;28;20203;-50
2022/05/27 03:52:57;;;;;;;4.78;4.13;;;15.60;99.90;;;;;;5109144;28;20254;-50
2022/05/27 03:55:27;;;;;;;7.00;4.30;;;15.50;99.90;;;;;;5109553;28;20204;-50
2022/05/27 03:57:55;;;;;;;7.43;4.10;;;15.60;99.90;;;;;;5110458;28;20207;-50
2022/05/27 04:00:24;;;;;;;4.97;4.10;;;15.60;99.90;;;;;;5109102;28;20603;-51
2022/05/27 04:02:52;;;;;;;4.80;4.28;;;15.60;99.90;;;;;;5109549;28;20906;-50
2022/05/27 04:05:25;;;;;;;5.22;4.15;;;15.50;99.90;;;;;;5109625;28;20245;-51
2022/05/27 04:07:54;;;;;;;5.28;4.50;;;15.50;99.90;;;;;;5109456;28;20301;-50
2022/05/27 04:10:22;;;;;;;10.25;4.90;;;15.40;99.90;;;;;;5110034;28;20253;-50
2022/05/27 04:12:50;;;;;;;5.00;4.50;;;15.40;99.90;;;;;;5108060;28;20360;-50
2022/05/27 04:15:19;;;;;;;6.18;4.30;;;15.40;99.90;;;;;;5089527;28;20243;-50
2022/05/27 04:17:47;;;;;;;5.50;5.00;;;15.40;99.90;;;;;;5089589;28;20204;-50
2022/05/27 04:20:18;;;;;;;6.00;5.00;;;15.50;99.90;;;;;;5107670;28;20680;-50
2022/05/27 04:22:59;;;;;;;6.05;5.50;;;15.50;99.90;;;;;;5112638;28;20224;-50
2022/05/27 04:25:27;;;;;;;7.28;6.15;;;15.50;99.90;;;;;;5113345;28;20211;-49
2022/05/27 04:27:55;;;;;;;7.35;6.63;;;15.50;99.90;;;;;;5113201;28;20761;-50
2022/05/27 04:30:24;;;;;;;8.40;7.22;;;15.40;99.90;;;;;;5113012;28;20247;-50
2022/05/27 04:32:52;;;;;;;8.93;7.32;;;15.40;99.90;;;;;;5112560;28;20223;-50
2022/05/27 04:35:20;;;;;;;8.18;6.60;;;15.50;99.90;;;;;;5112404;28;20280;-50
2022/05/27 04:37:48;;;;;;;7.15;6.55;;;15.50;99.90;;;;;;5112781;28;20243;-50
2022/05/27 04:40:17;;;;;;;6.40;5.80;;;15.50;99.90;;;;;;5113139;28;20269;-50
2022/05/27 04:42:45;;;;;;;7.65;6.30;;;15.50;99.90;;;;;;5112408;28;20227;-50
2022/05/27 04:45:14;;;;;;;6.07;5.47;;;15.50;99.90;;;;;;5112591;28;20204;-51
2022/05/27 04:47:43;;;;;;;5.95;5.35;;;15.50;99.90;;;;;;5112746;28;20333;-50
2022/05/27 04:50:11;;;;;;;5.70;5.07;;;15.50;99.90;;;;;;5113037;28;20739;-50
2022/05/27 04:52:40;;;;;;;5.32;4.82;;;15.50;99.90;;;;;;5104133;28;20231;-50
2022/05/27 04:55:11;;;;;;;5.45;4.68;;;15.50;99.90;;;;;;5095036;28;20212;-50
2022/05/27 04:57:42;;;;;;;6.45;4.38;;;15.50;99.90;;;;;;5091742;28;20196;-50
2022/05/27 05:00:14;;;;;;;5.95;3.90;;;15.50;99.90;;;;;;5090951;28;20265;-50
2022/05/27 05:02:42;;;;;;;4.47;4.00;;;15.50;99.90;;;;;;5090728;28;20224;-51
2022/05/27 05:05:14;;;;;;;3.88;3.42;;;15.50;99.90;;;;;;5094384;28;20253;-50
2022/05/27 05:07:43;;;;;;;4.13;3.72;;;15.50;99.90;;;;;;5091142;28;20220;-50
2022/05/27 05:10:14;;;;;;;4.10;3.72;;;15.40;99.90;;;;;;5091213;28;20204;-50
2022/05/27 05:12:44;;;;;;;4.22;3.92;;;15.50;99.90;;;;;;5092207;28;20329;-50
2022/05/27 05:15:13;;;;;;;5.90;3.70;;;15.40;99.90;;;;;;5104231;28;20295;-50
2022/05/27 05:17:41;;;;;;;4.47;3.78;;;15.50;99.90;;;;;;5091409;28;20292;-50
2022/05/27 05:20:12;;;;;;;4.57;3.65;;;15.60;99.90;;;;;;5105411;28;20208;-50
2022/05/27 05:22:40;;;;;;;4.45;3.47;;;15.60;99.90;;;;;;5110223;28;20769;-50
2022/05/27 05:25:09;;;;;;;3.63;3.33;;;15.60;99.90;;;;;;5111662;28;20646;-51
2022/05/27 05:27:39;;;;;;;3.60;3.30;;;15.60;99.90;;;;;;5108627;28;20278;-51
2022/05/27 05:30:13;;;;;;;4.47;3.45;;;15.60;99.90;;;;;;5097735;28;20205;-50
2022/05/27 05:32:42;;;;;;;3.72;3.42;;;15.60;99.90;;;;;;5095702;28;20266;-50
2022/05/27 05:35:11;;;;;;;3.50;3.20;;;15.70;99.90;;;;;;5111980;28;20300;-50
2022/05/27 05:37:40;;;;;;;3.38;2.97;;;15.60;99.90;;;;;;5111511;28;20215;-50
2022/05/27 05:40:09;;;;;;;3.50;3.20;;;15.60;99.90;;;;;;5111522;28;20254;-50
2022/05/27 05:42:38;;;;;;;3.00;2.80;;;15.70;99.90;;;;;;5110802;28;20223;-51
2022/05/27 05:45:08;;;;;;;3.00;2.80;;;15.70;99.90;;;;;;5111267;28;20687;-50
2022/05/27 05:47:37;;;;;;;3.38;2.92;;;15.70;99.90;;;;;;5111619;28;20261;-50
2022/05/27 05:50:06;;;;;;;3.10;2.80;;;15.70;99.90;;;;;;5109357;28;20269;-50
2022/05/27 05:52:34;;;;;;;5.32;3.13;;;15.70;99.90;;;;;;5089042;28;20535;-50
2022/05/27 05:55:03;;;;;;;2.33;2.22;;;15.70;99.90;;;;;;5091372;28;20232;-51
2022/05/27 05:57:31;;;;;;;2.60;2.40;;;15.70;99.90;;;;;;5102536;28;20269;-51
2022/05/27 06:00:00;;;;;;;2.50;2.30;;;15.70;99.90;;;;;;5109916;28;20309;-50
2022/05/27 06:02:28;;;;;;;2.45;2.25;;;15.70;99.90;;;;;;5109515;27;20886;-50
2022/05/27 06:04:58;;;;;;;2.55;2.25;;;15.70;99.90;;;;;;5110986;28;20199;-50
2022/05/27 06:07:29;;;;;;;2.20;2.00;;;15.70;99.90;;;;;;5108381;28;20203;-50
2022/05/27 06:09:57;;;;;;;2.70;2.50;;;15.70;99.90;;;;;;5104555;28;20270;-51
2022/05/27 06:12:26;;;;;;;2.60;2.40;;;15.70;99.90;;;;;;5088802;28;20228;-50
2022/05/27 06:14:54;;;;;;;2.38;2.15;;;15.70;99.90;;;;;;5090469;28;20681;-50
2022/05/27 06:17:25;;;;;;;2.40;2.20;;;15.80;99.90;;;;;;5090970;28;20305;-50
2022/05/27 06:19:53;;;;;;;2.75;2.55;;;15.70;99.90;;;;;;5102173;28;20680;-50
2022/05/27 06:22:22;;;;;;;2.83;2.60;;;15.70;99.90;;;;;;5109325;28;21045;-50
2022/05/27 06:24:51;;;;;;;2.88;2.67;;;15.60;99.90;;;;;;5107937;28;20207;-50
2022/05/27 06:27:19;;;;;;;3.05;2.60;;;15.70;99.90;;;;;;5094739;28;20211;-49
2022/05/27 06:35:18;;;;;;;3.47;2.35;;;15.40;99.90;;;;;;5110467;28;20261;-50
2022/05/27 06:37:48;;;;;;;2.08;1.85;;;15.30;99.90;;;;;;5110315;28;20246;-50
2022/05/27 06:40:17;;;;;;;2.47;1.60;;;15.20;99.90;;;;;;5110138;28;20620;-50
2022/05/27 06:42:45;;;;;;;1.73;1.35;;;15.10;99.90;;;;;;5109451;28;20785;-50
2022/05/27 06:45:14;;;;;;;1.58;1.30;;;15.20;99.90;;;;;;5109534;28;20684;-50
2022/05/27 06:47:42;;;;;;;2.78;1.30;;;15.10;99.90;;;;;;5110762;27;20195;-50
2022/05/27 06:50:11;;;;;;;2.00;1.15;;;15.10;99.90;;;;;;5110230;28;20979;-50
2022/05/27 06:52:41;;;;;;;1.45;1.35;;;15.10;99.90;;;;;;5109207;28;20284;-50
2022/05/27 06:55:12;;;;;;;2.63;1.42;;;15.20;99.90;;;;;;5109747;28;20746;-50
2022/05/27 06:57:40;;;;;;;1.98;1.45;;;15.20;99.90;;;;;;5109674;28;20230;-50
2022/05/27 07:00:11;;;;;;;1.98;1.23;;;15.30;99.90;;;;;;5109828;28;20222;-50
2022/05/27 07:02:39;;;;;;;1.40;1.30;;;15.40;99.90;;;;;;5108614;28;20776;-50
2022/05/27 07:05:09;;;;;;;2.35;1.25;;;15.50;99.90;;;;;;5107888;28;20207;-51
2022/05/27 07:07:37;;;;;;;1.52;1.40;;;15.40;99.90;;;;;;5094826;28;20285;-50
2022/05/27 07:10:07;;;;;;;1.75;1.30;;;15.30;99.90;;;;;;5103630;28;20228;-49
2022/05/27 07:12:37;;;;;;;2.15;1.60;;;15.30;99.90;;;;;;5106522;28;20250;-51
2022/05/27 07:15:05;;;;;;;2.38;1.48;;;15.20;99.90;;;;;;5103672;28;20227;-50
2022/05/27 07:17:33;;;;;;;3.05;1.73;;;15.30;99.90;;;;;;5099420;28;20222;-51
2022/05/27 07:20:02;;;;;;;2.13;1.92;;;15.40;99.90;;;;;;5104514;28;20204;-49
2022/05/27 07:22:30;;;;;;;2.15;1.95;;;15.40;99.90;;;;;;5095491;28;20250;-50
2022/05/27 07:24:59;;;;;;;2.10;1.80;;;15.40;99.90;;;;;;5093875;28;20227;-50
2022/05/27 07:27:27;;;;;;;1.80;1.70;;;15.70;99.90;;;;;;5109580;28;20235;-51
2022/05/27 07:29:57;;;;;;;2.28;1.90;;;15.70;99.90;;;;;;5108536;28;20650;-51
2022/05/27 07:32:25;;;;;;;2.10;1.90;;;15.70;99.90;;;;;;5107773;28;20779;-51
2022/05/27 07:34:53;;;;;;;2.20;1.92;;;15.80;99.90;;;;;;5098403;28;20269;-51
2022/05/27 07:37:22;;;;;;;2.78;1.83;;;15.80;99.90;;;;;;5101040;28;20957;-51
2022/05/27 07:39:50;;;;;;;1.67;1.58;;;15.70;99.90;;;;;;5099551;28;20314;-51
2022/05/27 07:42:18;;;;;;;2.38;1.80;;;15.70;99.90;;;;;;5102129;28;20224;-50
2022/05/27 07:44:46;;;;;;;1.70;1.60;;;15.70;99.90;;;;;;5101832;28;20203;-50
2022/05/27 07:47:15;;;;;;;2.65;1.80;;;15.70;99.90;;;;;;5105891;28;20231;-51
2022/05/27 07:49:43;;;;;;;2.17;1.77;;;15.70;99.90;;;;;;5108800;28;20582;-51
2022/05/27 07:52:12;;;;;;;2.40;1.88;;;15.60;99.90;;;;;;5086241;28;20231;-51
2022/05/27 07:54:40;;;;;;;2.85;2.03;;;15.60;99.90;;;;;;5096070;28;20232;-50
2022/05/27 07:57:24;;;;;;;2.55;1.90;;;15.60;99.90;;;;;;5112515;28;20213;-51
2022/05/27 07:59:59;;;;;;;2.20;2.00;;;15.70;99.90;;;;;;5112246;28;20214;-50
2022/05/27 08:02:29;;;;;;;3.35;2.22;;;15.70;99.90;;;;;;5112263;28;20262;-51
2022/05/27 08:04:57;;;;;;;2.85;2.05;;;15.90;99.90;;;;;;5112234;28;20257;-51
2022/05/27 08:07:27;;;;;;;2.38;1.80;;;16.00;99.90;;;;;;5112794;28;20207;-49
2022/05/27 08:09:55;;;;;;;2.53;1.95;;;16.10;99.90;;;;;;5113320;28;20305;-50
2022/05/27 08:12:23;;;;;;;2.78;2.17;;;16.00;99.90;;;;;;5111956;28;20285;-50
2022/05/27 08:14:51;;;;;;;3.08;2.08;;;16.20;99.90;;;;;;5112959;28;20261;-50
2022/05/27 08:17:20;;;;;;;2.38;2.17;;;16.30;99.90;;;;;;5112112;28;20207;-50
2022/05/27 08:19:49;;;;;;;4.47;2.38;;;16.40;99.90;;;;;;5111961;28;20231;-50
2022/05/27 08:22:17;;;;;;;3.05;1.73;;;16.50;99.90;;;;;;5111241;28;20648;-50
2022/05/27 08:24:46;;;;;;;2.95;2.20;;;16.60;99.90;;;;;;5112537;28;20246;-51
2022/05/27 08:27:14;;;;;;;5.18;2.08;;;16.50;99.90;;;;;;5112243;28;20239;-51
2022/05/27 08:29:42;;;;;;;4.95;2.03;;;16.60;99.90;;;;;;5110660;28;20227;-51
2022/05/27 08:32:10;;;;;;;4.07;2.15;;;16.50;99.90;;;;;;5111643;28;20227;-50
2022/05/27 08:40:22;;;;;;;2.97;2.22;;;17.10;99.90;;;;;;5108268;28;20619;-51
2022/05/27 08:42:58;;;;;;;2.95;2.00;;;17.20;99.90;;;;;;5108858;28;20284;-50
2022/05/27 08:45:33;;;;;;;4.75;2.30;;;17.20;99.90;;;;;;5112412;28;20675;-50
2022/05/27 08:48:06;;;;;;;2.22;1.80;;;17.20;99.90;;;;;;5112458;28;20198;-51
2022/05/27 08:50:38;;;;;;;2.22;1.80;;;17.20;99.90;;;;;;5111072;28;20274;-51
2022/05/27 08:53:17;;;;;;;2.40;2.17;;;17.30;99.90;;;;;;5111081;28;20661;-50
2022/05/27 09:01:30;;;;;;;5.38;2.55;;;17.50;99.90;;;;;;5111134;28;20770;-50
2022/05/27 09:04:12;;;;;;;4.05;2.58;;;17.40;99.90;;;;;;5111416;28;20210;-50
2022/05/27 09:06:46;;;;;;;5.80;2.55;;;17.50;99.90;;;;;;5109890;28;20264;-50
2022/05/27 09:09:20;;;;;;;5.35;2.28;;;17.40;99.90;;;;;;5111342;28;20207;-51
2022/05/27 09:12:05;;;;;;;4.63;2.38;;;17.50;99.90;;;;;;5106589;28;20791;-50
2022/05/27 09:14:37;;;;;;;4.00;2.10;;;17.60;99.90;;;;;;5111693;28;20208;-50
2022/05/27 09:17:07;;;;;;;3.60;2.30;;;17.50;99.90;;;;;;5111306;28;20629;-50
2022/05/27 09:19:50;;;;;;;5.30;2.40;;;17.50;99.90;;;;;;5111123;28;20207;-50
2022/05/27 09:22:30;;;;;;;2.83;2.10;;;17.70;99.90;;;;;;5109512;28;20258;-50
2022/05/27 09:25:12;;;;;;;3.90;2.50;;;17.80;99.90;;;;;;5107012;28;20722;-51
2022/05/27 09:27:51;;;;;;;3.72;2.15;;;18.00;99.90;;;;;;5102364;28;20257;-50
2022/05/27 09:30:20;;;;;;;2.90;2.50;;;18.00;99.90;;;;;;5110637;28;20231;-50
2022/05/27 09:32:58;;;;;;;3.55;2.13;;;18.10;99.90;;;;;;5106069;28;20227;-50
2022/05/27 09:35:30;;;;;;;3.65;2.28;;;18.30;99.90;;;;;;5106853;28;20265;-51
2022/05/27 09:38:22;;;;;;;3.65;2.10;;;18.30;99.90;;;;;;5109728;28;20294;-51
2022/05/27 09:40:55;;;;;;;4.93;2.60;;;18.40;99.90;;;;;;5107133;28;20235;-51
2022/05/27 09:43:30;;;;;;;3.05;2.22;;;18.60;99.90;;;;;;5110261;28;20653;-51
2022/05/27 09:46:00;;;;;;;4.22;2.50;;;18.80;99.90;;;;;;5109924;28;20207;-50
2022/05/27 09:48:29;;;;;;;7.13;2.70;;;18.80;99.90;;;;;;5106288;28;20734;-50
2022/05/27 09:51:00;;;;;;;3.75;2.55;;;18.70;99.90;;;;;;5110051;28;20263;-51
2022/05/27 09:53:32;;;;;;;3.67;2.60;;;18.60;99.90;;;;;;5097630;28;20224;-51
2022/05/27 09:56:05;;;;;;;4.53;2.60;;;18.70;99.90;;;;;;5106749;28;20203;-50
2022/05/27 09:58:35;;;;;;;4.47;2.75;;;18.80;99.90;;;;;;5110179;28;20242;-50
2022/05/27 10:01:05;;;;;;;4.10;2.88;;;18.90;99.90;;;;;;5110136;28;20211;-51
2022/05/27 10:03:36;;;;;;;4.93;3.08;;;19.10;99.90;;;;;;5110007;28;20215;-51
2022/05/27 10:06:08;;;;;;;6.95;3.10;;;19.40;99.90;;;;;;5109990;28;20243;-50
2022/05/27 10:08:40;;;;;;;5.32;3.00;;;19.40;99.90;;;;;;5100354;28;20583;-50
2022/05/27 10:11:23;;;;;;;5.22;3.30;;;19.30;99.90;;;;;;5103982;28;20282;-51
2022/05/27 10:14:16;;;;;;;5.45;3.33;;;19.20;99.90;;;;;;5110376;28;20222;-51
2022/05/27 10:16:58;;;;;;;4.78;3.35;;;19.20;99.90;;;;;;5108726;28;20241;-51
2022/05/27 10:19:28;;;;;;;6.45;3.30;;;19.20;99.90;;;;;;5110420;28;20204;-51
2022/05/27 10:21:58;;;;;;;6.55;3.47;;;19.10;99.90;;;;;;5106853;28;20227;-50
2022/05/27 10:24:29;;;;;;;3.83;2.90;;;19.00;99.90;;;;;;5110059;28;20235;-51
2022/05/27 10:27:05;;;;;;;4.05;2.70;;;18.90;99.90;;;;;;5110417;28;20246;-50
2022/05/27 10:29:35;;;;;;;5.68;3.08;;;18.90;99.90;;;;;;5107371;28;20238;-51
2022/05/27 10:32:04;;;;;;;5.32;3.30;;;19.30;99.90;;;;;;5090802;28;20263;-51
2022/05/27 10:34:45;;;;;;;3.72;2.95;;;19.50;99.90;;;;;;5095152;28;20228;-51
2022/05/27 10:37:28;;;;;;;4.80;3.38;;;19.60;99.90;;;;;;5101901;28;20288;-50
2022/05/27 10:40:08;;;;;;;3.85;3.00;;;19.80;99.90;;;;;;5111468;28;20894;-50
2022/05/27 10:42:48;;;;;;;4.18;3.17;;;19.80;99.90;;;;;;5104721;28;20656;-50
2022/05/27 10:45:20;;;;;;;5.32;3.30;;;19.70;99.90;;;;;;5093086;28;20231;-51
2022/05/27 10:48:33;;;;;;;3.75;3.20;;;19.90;99.90;;;;;;5092770;28;20856;-51
2022/05/27 10:51:11;;;;;;;3.78;2.95;;;19.70;99.90;;;;;;5098875;28;20776;-51
2022/05/27 10:54:01;;;;;;;8.52;6.90;;;19.80;99.90;;;;;;5109212;28;20207;-51
2022/05/27 11:02:04;;;;;;;106.40;79.88;;;19.90;99.90;;;;;;5109919;28;20264;-51
2022/05/27 11:03:10;;;;;;;36.50;26.52;;;20.00;99.90;;;;;;5108890;28;20230;-51
2022/05/27 11:05:51;;;;;;;151.88;101.53;;;20.00;99.90;;;;;;5109346;28;20206;-51
2022/05/27 11:08:26;;;;;;;62.97;41.03;;;20.20;99.90;;;;;;5109422;28;20260;-50
2022/05/27 11:11:07;;;;;;;109.97;72.68;;;20.20;99.90;;;;;;5109434;28;20280;-51
2022/05/27 11:16:52;;;;;;;5.53;3.78;;;20.50;99.90;;;;;;5099109;28;20212;-51
2022/05/27 11:19:38;;;;;;;5.35;3.63;;;20.70;99.90;;;;;;5095272;28;20685;-51
2022/05/27 11:22:18;;;;;;;5.57;3.83;;;20.60;99.90;;;;;;5092498;28;20223;-51
2022/05/27 11:25:12;;;;;;;6.85;3.45;;;20.40;99.90;;;;;;5105415;28;20253;-51
2022/05/27 11:28:09;;;;;;;7.10;3.55;;;20.60;99.90;;;;;;5096699;28;20292;-50
2022/05/27 11:30:49;;;;;;;5.18;3.38;;;20.80;99.90;;;;;;5082464;28;20199;-50
2022/05/27 11:33:50;;;;;;;5.72;3.20;;;20.70;99.90;;;;;;5096866;28;20230;-50
2022/05/27 11:36:28;;;;;;;4.72;3.50;;;20.80;99.90;;;;;;5093501;28;20768;-50
2022/05/27 11:39:36;;;;;;;6.07;3.75;;;20.90;99.90;;;;;;5108793;28;20264;-50
2022/05/27 11:42:12;;;;;;;4.55;3.38;;;20.90;99.90;;;;;;5108121;28;20857;-50
2022/05/27 11:44:44;;;;;;;8.27;3.70;;;20.90;99.90;;;;;;5108912;28;20242;-50
2022/05/27 11:47:44;;;;;;;5.22;3.22;;;20.90;99.90;;;;;;5106132;28;20319;-50
2022/05/27 11:50:35;;;;;;;4.50;3.40;;;21.00;99.90;;;;;;5109514;28;20235;-51
2022/05/27 11:53:16;;;;;;;4.38;3.05;;;21.00;99.90;;;;;;5107618;28;20885;-51
2022/05/27 11:56:04;;;;;;;5.10;3.80;;;20.70;99.90;;;;;;5108323;28;20207;-51
2022/05/27 11:58:49;;;;;;;6.38;3.60;;;20.40;99.90;;;;;;5106417;28;20288;-50
2022/05/27 12:01:33;;;;;;;5.97;3.90;;;20.20;99.90;;;;;;5097242;28;20280;-51
2022/05/27 12:04:10;;;;;;;6.60;3.50;;;20.20;99.90;;;;;;5108002;28;20211;-51
2022/05/27 12:06:50;;;;;;;9.98;4.18;;;20.10;99.90;;;;;;5108561;28;20720;-50
2022/05/27 12:09:26;;;;;;;6.90;4.25;;;20.10;99.90;;;;;;5109421;28;20207;-50
2022/05/27 12:11:58;;;;;;;6.68;4.18;;;20.10;99.90;;;;;;5105538;28;20239;-50
2022/05/27 12:14:31;;;;;;;5.40;3.97;;;20.20;99.90;;;;;;5100652;28;20730;-50
2022/05/27 12:17:02;;;;;;;8.52;4.50;;;20.40;99.90;;;;;;5095591;28;20204;-50
2022/05/27 12:19:34;;;;;;;8.60;4.00;;;20.60;99.90;;;;;;5094407;28;20276;-51
2022/05/27 12:22:10;;;;;;;7.85;3.30;;;20.70;99.90;;;;;;5100232;28;20704;-50
2022/05/27 12:24:42;;;;;;;7.57;4.10;;;20.90;99.90;;;;;;5108661;28;20753;-50
2022/05/27 12:27:14;;;;;;;8.50;4.07;;;20.90;99.90;;;;;;5108964;28;20687;-50
2022/05/27 12:29:46;;;;;;;5.65;3.38;;;21.00;99.90;;;;;;5108662;28;20641;-51
2022/05/27 12:32:16;;;;;;;7.13;3.47;;;20.60;99.90;;;;;;5102935;28;20235;-51
2022/05/27 12:34:48;;;;;;;7.38;2.90;;;20.60;99.90;;;;;;5108050;28;20676;-51
2022/05/27 12:37:22;;;;;;;7.72;3.03;;;20.70;99.90;;;;;;5107337;28;20247;-50
2022/05/27 12:39:52;;;;;;;5.07;3.15;;;20.70;99.90;;;;;;5110791;28;20239;-50
2022/05/27 12:42:30;;;;;;;5.97;3.40;;;20.70;99.90;;;;;;5111781;28;20235;-50
2022/05/27 12:45:13;;;;;;;6.10;3.08;;;20.80;99.90;;;;;;5111817;28;20243;-50
2022/05/27 12:47:43;;;;;;;7.57;3.20;;;21.00;99.90;;;;;;5095510;28;20641;-50
2022/05/27 12:50:17;;;;;;;6.63;3.17;;;21.00;99.90;;;;;;5099015;28;20228;-50
2022/05/27 12:52:54;;;;;;;4.30;2.85;;;20.90;99.90;;;;;;5093216;28;20735;-51
2022/05/27 13:01:29;;;;;;;3.78;2.72;;;20.80;99.90;;;;;;5097600;28;20669;-50
2022/05/27 13:04:01;;;;;;;6.07;3.20;;;20.80;99.90;;;;;;5098170;28;20232;-51
2022/05/27 13:06:41;;;;;;;5.93;2.83;;;20.80;99.90;;;;;;5096874;28;20684;-51
2022/05/27 13:09:36;;;;;;;6.65;3.30;;;20.70;99.90;;;;;;5095883;28;20286;-51
2022/05/27 13:12:04;;;;;;;6.15;3.00;;;20.40;99.90;;;;;;5106832;28;20638;-50
2022/05/27 13:14:46;;;;;;;5.90;3.10;;;20.20;99.90;;;;;;5111440;28;20715;-51
2022/05/27 13:17:31;;;;;;;7.10;3.38;;;20.10;99.90;;;;;;5108421;28;20214;-51
2022/05/27 13:20:09;;;;;;;4.38;2.67;;;20.10;99.90;;;;;;5111520;28;20211;-51
2022/05/27 13:22:53;;;;;;;7.50;3.63;;;20.10;99.90;;;;;;5110296;28;20227;-50
2022/05/27 13:25:31;;;;;;;4.97;2.83;;;20.00;99.90;;;;;;5111281;28;20219;-51
2022/05/27 13:28:03;;;;;;;6.43;2.72;;;20.10;99.90;;;;;;5110953;28;20565;-51
2022/05/27 13:30:56;;;;;;;7.22;2.90;;;20.00;99.90;;;;;;5110736;28;20250;-50
2022/05/27 13:33:28;;;;;;;4.93;2.90;;;20.10;99.90;;;;;;5098544;28;20616;-50
2022/05/27 13:35:56;;;;;;;6.65;2.85;;;20.30;99.90;;;;;;5107131;28;20450;-51
2022/05/27 13:38:28;;;;;;;5.93;3.10;;;20.40;99.90;;;;;;5106519;28;20220;-51
2022/05/27 13:40:59;;;;;;;6.28;3.03;;;20.40;99.80;;;;;;5109136;28;20241;-50
2022/05/27 13:43:34;;;;;;;5.25;2.50;;;20.30;99.60;;;;;;5106810;28;20266;-51
2022/05/27 13:46:13;;;;;;;5.35;2.63;;;20.30;99.90;;;;;;5102638;28;20195;-50
2022/05/27 13:48:47;;;;;;;9.10;2.97;;;20.40;99.90;;;;;;5107365;28;20260;-51
2022/05/27 13:51:17;;;;;;;6.53;2.60;;;20.50;99.90;;;;;;5109952;27;20222;-51
2022/05/27 13:53:46;;;;;;;7.05;2.90;;;20.60;99.90;;;;;;5106501;28;20215;-51